createdAt,value
2022-11-26T00:02:03.993Z,7.56
2022-11-26T00:05:11.568Z,7.55
2022-11-26T00:08:18.858Z,7.56
2022-11-26T00:11:26.247Z,7.49
2022-11-26T00:14:33.454Z,7.44
2022-11-26T00:17:40.907Z,7.37
2022-11-26T00:20:48.259Z,7.37
2022-11-26T00:23:55.647Z,7.37
2022-11-26T00:27:03.060Z,7.42
2022-11-26T00:30:10.030Z,7.44
2022-11-26T00:33:17.678Z,7.44
2022-11-26T00:36:24.841Z,7.47
2022-11-26T00:39:31.843Z,7.44
2022-11-26T00:42:39.453Z,7.38
2022-11-26T00:45:47.072Z,7.32
2022-11-26T00:48:53.954Z,7.32
2022-11-26T00:52:01.634Z,7.26
2022-11-26T00:55:08.555Z,7.16
2022-11-26T00:58:16.196Z,7.17
2022-11-26T01:01:23.958Z,7.15
2022-11-26T01:04:30.826Z,7.05
2022-11-26T01:07:38.754Z,6.99
2022-11-26T01:10:46.157Z,6.90
2022-11-26T01:13:53.389Z,6.84
2022-11-26T01:17:00.797Z,6.76
2022-11-26T01:20:08.297Z,6.65
2022-11-26T01:23:15.580Z,6.62
2022-11-26T01:26:22.957Z,6.62
2022-11-26T01:29:30.255Z,6.59
2022-11-26T01:32:37.621Z,6.61
2022-11-26T01:35:45.101Z,6.58
2022-11-26T01:38:52.323Z,6.54
2022-11-26T01:41:59.634Z,6.54
2022-11-26T01:45:06.802Z,6.53
2022-11-26T01:48:14.446Z,6.50
2022-11-26T01:51:22.326Z,6.46
2022-11-26T01:54:29.013Z,6.43
2022-11-26T01:57:36.258Z,6.43
2022-11-26T02:00:42.802Z,6.43
2022-11-26T02:03:50.151Z,6.47
2022-11-26T02:06:57.369Z,6.56
2022-11-26T02:10:03.840Z,6.59
2022-11-26T02:13:10.954Z,6.59
2022-11-26T02:16:18.227Z,6.56
2022-11-26T02:19:24.590Z,6.53
2022-11-26T02:22:31.850Z,6.61
2022-11-26T02:25:38.660Z,6.69
2022-11-26T02:28:45.422Z,6.79
2022-11-26T02:31:52.197Z,6.79
2022-11-26T02:34:59.120Z,6.73
2022-11-26T02:38:05.911Z,6.77
2022-11-26T02:41:12.660Z,6.80
2022-11-26T02:44:19.478Z,6.83
2022-11-26T02:47:26.269Z,6.83
2022-11-26T02:50:33.644Z,6.90
2022-11-26T02:53:40.064Z,6.94
2022-11-26T02:56:46.996Z,6.97
2022-11-26T02:59:53.867Z,6.99
2022-11-26T03:03:00.816Z,7.07
2022-11-26T03:06:08.040Z,7.05
2022-11-26T03:09:14.927Z,7.05
2022-11-26T03:12:21.614Z,7.02
2022-11-26T03:15:28.547Z,7.04
2022-11-26T03:18:35.904Z,7.07
2022-11-26T03:21:42.979Z,7.08
2022-11-26T03:24:49.460Z,7.13
2022-11-26T03:27:56.452Z,7.12
2022-11-26T03:31:03.311Z,7.05
2022-11-26T03:34:10.161Z,6.99
2022-11-26T03:37:17.134Z,6.94
2022-11-26T03:40:23.987Z,6.83
2022-11-26T03:43:30.836Z,6.73
2022-11-26T03:46:37.574Z,6.71
2022-11-26T03:49:44.034Z,6.63
2022-11-26T03:52:51.345Z,6.58
2022-11-26T03:55:58.156Z,6.56
2022-11-26T03:59:05.047Z,6.56
2022-11-26T04:02:12.166Z,6.56
2022-11-26T04:05:18.606Z,6.48
2022-11-26T04:08:25.888Z,6.43
2022-11-26T04:11:33.308Z,6.40
2022-11-26T04:14:40.091Z,6.38
2022-11-26T04:17:47.260Z,6.41
2022-11-26T04:20:54.491Z,6.44
2022-11-26T04:24:00.965Z,6.51
2022-11-26T04:27:08.101Z,6.48
2022-11-26T04:30:14.581Z,6.46
2022-11-26T04:33:21.361Z,6.36
2022-11-26T04:36:28.500Z,6.36
2022-11-26T04:39:34.886Z,6.25
2022-11-26T04:42:42.164Z,6.18
2022-11-26T04:45:49.354Z,6.14
2022-11-26T04:48:55.735Z,6.13
2022-11-26T04:52:02.494Z,6.11
2022-11-26T04:55:09.677Z,6.07
2022-11-26T04:58:16.156Z,6.09
2022-11-26T05:01:23.411Z,6.11
2022-11-26T05:04:30.184Z,6.19
2022-11-26T05:07:37.192Z,6.29
2022-11-26T05:10:44.328Z,6.32
2022-11-26T05:13:51.218Z,6.29
2022-11-26T05:16:58.184Z,6.22
2022-11-26T05:20:05.469Z,6.09
2022-11-26T05:23:12.197Z,5.96
2022-11-26T05:26:18.980Z,5.86
2022-11-26T05:29:25.850Z,5.78
2022-11-26T05:32:32.932Z,5.71
2022-11-26T05:35:39.762Z,5.64
2022-11-26T05:38:46.624Z,5.56
2022-11-26T05:41:53.355Z,5.49
2022-11-26T05:45:00.164Z,5.43
2022-11-26T05:48:06.965Z,5.41
2022-11-26T05:51:13.960Z,5.41
2022-11-26T05:54:20.505Z,5.41
2022-11-26T05:57:27.694Z,5.38
2022-11-26T06:00:34.566Z,5.41
2022-11-26T06:03:41.548Z,5.46
2022-11-26T06:06:48.847Z,5.38
2022-11-26T06:09:55.746Z,5.31
2022-11-26T06:13:02.777Z,5.22
2022-11-26T06:16:10.106Z,5.16
2022-11-26T06:19:16.797Z,5.17
2022-11-26T06:22:23.238Z,5.25
2022-11-26T06:25:30.552Z,5.31
2022-11-26T06:28:37.200Z,5.28
2022-11-26T06:31:44.405Z,5.22
2022-11-26T06:34:54.195Z,5.16
2022-11-26T06:38:00.952Z,5.12
2022-11-26T06:41:08.192Z,5.17
2022-11-26T06:44:15.352Z,5.17
2022-11-26T06:47:21.864Z,5.20
2022-11-26T06:50:28.671Z,5.34
2022-11-26T06:53:35.602Z,5.48
2022-11-26T06:56:42.514Z,5.53
2022-11-26T06:59:49.634Z,5.52
2022-11-26T07:02:56.575Z,5.46
2022-11-26T07:06:03.370Z,5.35
2022-11-26T07:09:10.545Z,5.23
2022-11-26T07:12:17.268Z,5.14
2022-11-26T07:15:24.217Z,5.05
2022-11-26T07:18:30.948Z,4.95
2022-11-26T07:21:37.728Z,4.91
2022-11-26T07:24:44.739Z,4.84
2022-11-26T07:27:51.478Z,4.83
2022-11-26T07:30:58.442Z,4.80
2022-11-26T07:34:05.567Z,4.77
2022-11-26T07:37:12.108Z,4.77
2022-11-26T07:40:18.939Z,4.79
2022-11-26T07:43:25.871Z,4.86
2022-11-26T07:46:33.003Z,4.95
2022-11-26T07:49:39.400Z,5.13
2022-11-26T07:52:46.281Z,5.35
2022-11-26T07:55:53.399Z,5.59
2022-11-26T07:59:00.232Z,5.78
2022-11-26T08:02:07.129Z,5.91
2022-11-26T08:05:14.163Z,5.98
2022-11-26T08:08:20.565Z,6.00
2022-11-26T08:11:27.965Z,5.98
2022-11-26T08:14:34.715Z,5.92
2022-11-26T08:17:41.665Z,5.85
2022-11-26T08:20:48.555Z,5.81
2022-11-26T08:23:55.536Z,5.85
2022-11-26T08:27:02.378Z,6.00
2022-11-26T08:30:09.427Z,6.22
2022-11-26T08:33:15.848Z,6.41
2022-11-26T08:36:22.818Z,6.51
2022-11-26T08:39:30.109Z,6.71
2022-11-26T08:42:36.580Z,6.80
2022-11-26T08:45:43.947Z,6.84
2022-11-26T08:48:50.795Z,6.81
2022-11-26T08:51:57.561Z,6.71
2022-11-26T08:55:04.456Z,6.66
2022-11-26T08:58:11.332Z,6.61
2022-11-26T09:01:18.288Z,6.62
2022-11-26T09:04:25.003Z,6.62
2022-11-26T09:07:31.766Z,6.72
2022-11-26T09:10:38.384Z,6.89
2022-11-26T09:13:44.973Z,7.08
2022-11-26T09:16:52.225Z,7.34
2022-11-26T09:19:59.464Z,7.40
2022-11-26T09:23:06.016Z,7.40
2022-11-26T09:26:13.498Z,7.38
2022-11-26T09:29:20.617Z,7.37
2022-11-26T09:32:33.667Z,7.37
2022-11-26T09:35:30.749Z,7.44
2022-11-26T09:38:37.426Z,7.56
2022-11-26T09:41:44.790Z,7.63
2022-11-26T09:44:52.260Z,7.78
2022-11-26T09:47:59.011Z,7.87
2022-11-26T09:51:06.351Z,8.02
2022-11-26T09:54:13.752Z,8.29
2022-11-26T09:57:20.381Z,8.45
2022-11-26T10:00:27.603Z,8.36
2022-11-26T10:03:34.813Z,8.30
2022-11-26T10:06:41.434Z,8.28
2022-11-26T10:09:48.944Z,8.22
2022-11-26T10:13:18.135Z,8.32
2022-11-26T10:16:00.197Z,8.40
2022-11-26T10:19:07.236Z,8.47
2022-11-26T10:22:14.205Z,8.48
2022-11-26T10:25:21.157Z,8.47
2022-11-26T10:28:28.281Z,8.50
2022-11-26T10:31:35.453Z,8.55
2022-11-26T10:34:42.708Z,8.55
2022-11-26T10:37:50.034Z,8.58
2022-11-26T10:40:57.320Z,8.66
2022-11-26T10:44:04.392Z,8.73
2022-11-26T10:47:11.403Z,8.84
2022-11-26T10:50:46.466Z,8.93
2022-11-26T10:53:22.659Z,9.01
2022-11-26T10:56:30.173Z,8.99
2022-11-26T10:59:37.784Z,9.01
2022-11-26T11:02:44.760Z,9.10
2022-11-26T11:05:51.876Z,9.15
2022-11-26T11:08:58.346Z,9.18
2022-11-26T11:12:05.756Z,9.15
2022-11-26T11:15:12.618Z,9.20
2022-11-26T11:18:19.148Z,9.25
2022-11-26T11:21:25.929Z,9.32
2022-11-26T11:24:32.368Z,9.34
2022-11-26T11:27:39.630Z,9.32
2022-11-26T11:30:46.222Z,9.27
2022-11-26T11:33:53.341Z,9.27
2022-11-26T11:37:00.779Z,9.27
2022-11-26T11:40:10.772Z,9.27
2022-11-26T11:43:09.513Z,9.30
2022-11-26T11:46:17.209Z,9.30
2022-11-26T11:49:25.945Z,9.30
2022-11-26T11:52:33.355Z,9.39
2022-11-26T11:55:40.236Z,9.49
2022-11-26T11:58:47.297Z,9.58
2022-11-26T12:01:54.181Z,9.66
2022-11-26T12:05:01.108Z,9.64
2022-11-26T12:08:08.468Z,9.63
2022-11-26T12:11:15.250Z,9.61
2022-11-26T12:14:22.049Z,9.63
2022-11-26T12:17:33.072Z,9.57
2022-11-26T12:20:29.557Z,9.52
2022-11-26T12:23:36.723Z,9.56
2022-11-26T12:26:43.604Z,9.50
2022-11-26T12:29:50.190Z,9.46
2022-11-26T12:32:57.494Z,9.45
2022-11-26T12:36:04.375Z,9.35
2022-11-26T12:39:11.965Z,9.27
2022-11-26T12:42:19.105Z,9.23
2022-11-26T12:45:25.621Z,9.18
2022-11-26T12:48:32.796Z,9.16
2022-11-26T12:51:39.998Z,9.13
2022-11-26T12:54:46.468Z,9.13
2022-11-26T12:57:53.669Z,9.15
2022-11-26T13:01:00.614Z,9.20
2022-11-26T13:04:37.353Z,9.23
2022-11-26T13:07:11.624Z,9.23
2022-11-26T13:10:18.531Z,9.25
2022-11-26T13:13:25.102Z,9.28
2022-11-26T13:16:32.282Z,9.27
2022-11-26T13:19:39.550Z,9.30
2022-11-26T13:22:46.620Z,9.28
2022-11-26T13:25:53.645Z,9.24
2022-11-26T13:29:00.444Z,9.24
2022-11-26T13:32:12.689Z,9.23
2022-11-26T13:35:09.732Z,9.20
2022-11-26T13:38:16.479Z,9.18
2022-11-26T13:41:23.196Z,9.16
2022-11-26T13:44:30.117Z,9.13
2022-11-26T13:47:37.298Z,9.13
2022-11-26T13:50:44.179Z,9.13
2022-11-26T13:53:51.011Z,9.09
2022-11-26T13:56:58.139Z,9.05
2022-11-26T14:00:04.530Z,8.99
2022-11-26T14:03:11.732Z,8.91
2022-11-26T14:06:19.016Z,8.87
2022-11-26T14:09:25.481Z,8.79
2022-11-26T14:12:32.473Z,8.78
2022-11-26T14:15:39.384Z,8.71
2022-11-26T14:18:46.164Z,8.65
2022-11-26T14:21:53.464Z,8.62
2022-11-26T14:25:00.172Z,8.57
2022-11-26T14:28:06.887Z,8.50
2022-11-26T14:31:13.854Z,8.36
2022-11-26T14:34:20.947Z,8.28
2022-11-26T14:37:27.745Z,8.17
2022-11-26T14:40:34.519Z,8.08
2022-11-26T14:43:42.035Z,7.99
2022-11-26T14:46:48.989Z,7.87
2022-11-26T14:49:55.701Z,7.75
2022-11-26T14:53:02.946Z,7.67
2022-11-26T14:56:09.761Z,7.59
2022-11-26T14:59:16.540Z,7.50
2022-11-26T15:02:23.892Z,7.38
2022-11-26T15:05:30.532Z,7.26
2022-11-26T15:08:37.766Z,7.13
2022-11-26T15:11:44.794Z,6.98
2022-11-26T15:14:51.214Z,6.83
2022-11-26T15:17:58.431Z,6.76
2022-11-26T15:21:05.155Z,6.62
2022-11-26T15:24:12.062Z,6.51
2022-11-26T15:27:19.154Z,6.36
2022-11-26T15:30:25.989Z,6.22
2022-11-26T15:33:32.859Z,6.14
2022-11-26T15:36:39.717Z,6.10
2022-11-26T15:39:47.038Z,6.06
2022-11-26T15:42:53.980Z,5.96
2022-11-26T15:46:00.741Z,5.89
2022-11-26T15:49:07.861Z,5.78
2022-11-26T15:52:14.330Z,5.77
2022-11-26T15:55:21.685Z,5.71
2022-11-26T15:58:29.033Z,5.66
2022-11-26T16:01:35.693Z,5.66
2022-11-26T16:04:43.129Z,5.70
2022-11-26T16:07:50.396Z,5.67
2022-11-26T16:10:56.945Z,5.59
2022-11-26T16:14:04.205Z,5.52
2022-11-26T16:17:11.081Z,5.41
2022-11-26T16:20:17.906Z,5.38
2022-11-26T16:23:25.167Z,5.30
2022-11-26T16:26:32.294Z,5.16
2022-11-26T16:29:38.884Z,5.09
2022-11-26T16:32:45.998Z,5.02
2022-11-26T16:35:52.859Z,5.04
2022-11-26T16:38:59.609Z,5.05
2022-11-26T16:42:06.799Z,4.94
2022-11-26T16:45:13.619Z,4.79
2022-11-26T16:48:20.510Z,4.72
2022-11-26T16:51:27.450Z,4.58
2022-11-26T16:54:34.578Z,4.50
2022-11-26T16:57:41.467Z,4.46
2022-11-26T17:00:48.270Z,4.44
2022-11-26T17:03:55.616Z,4.44
2022-11-26T17:07:02.230Z,4.47
2022-11-26T17:10:09.372Z,4.47
2022-11-26T17:13:16.853Z,4.42
2022-11-26T17:16:23.539Z,4.29
2022-11-26T17:19:30.714Z,4.29
2022-11-26T17:22:37.496Z,4.26
2022-11-26T17:25:44.265Z,4.22
2022-11-26T17:28:51.620Z,4.12
2022-11-26T17:31:58.358Z,4.12
2022-11-26T17:35:05.156Z,4.07
2022-11-26T17:38:12.045Z,4.03
2022-11-26T17:41:19.228Z,4.00
2022-11-26T17:44:26.119Z,3.94
2022-11-26T17:47:33.018Z,3.90
2022-11-26T17:50:40.398Z,3.88
2022-11-26T17:53:47.548Z,3.89
2022-11-26T17:56:54.508Z,3.92
2022-11-26T18:00:02.052Z,3.96
2022-11-26T18:03:08.866Z,3.92
2022-11-26T18:06:16.250Z,3.88
2022-11-26T18:09:23.753Z,3.86
2022-11-26T18:12:30.560Z,3.90
2022-11-26T18:15:37.941Z,3.90
2022-11-26T18:18:45.391Z,3.88
2022-11-26T18:21:52.071Z,3.86
2022-11-26T18:24:59.638Z,3.88
2022-11-26T18:28:07.094Z,3.89
2022-11-26T18:31:14.186Z,3.92
2022-11-26T18:34:21.642Z,3.89
2022-11-26T18:37:28.452Z,3.88
2022-11-26T18:40:35.504Z,3.89
2022-11-26T18:43:42.896Z,3.90
2022-11-26T18:46:49.896Z,3.90
2022-11-26T18:49:56.934Z,3.92
2022-11-26T18:53:03.828Z,3.96
2022-11-26T18:56:10.871Z,3.97
2022-11-26T18:59:17.813Z,3.97
2022-11-26T19:02:24.469Z,3.98
2022-11-26T19:05:31.759Z,3.96
2022-11-26T19:08:41.469Z,3.90
2022-11-26T19:11:48.669Z,3.90
2022-11-26T19:14:57.020Z,3.90
2022-11-26T19:18:04.071Z,3.89
2022-11-26T19:21:11.312Z,3.86
2022-11-26T19:24:18.371Z,3.82
2022-11-26T19:27:24.931Z,3.80
2022-11-26T19:30:32.454Z,3.78
2022-11-26T19:33:39.602Z,3.72
2022-11-26T19:36:46.179Z,3.72
2022-11-26T19:39:53.403Z,3.71
2022-11-26T19:43:00.573Z,3.75
2022-11-26T19:46:07.183Z,3.71
2022-11-26T19:49:14.305Z,3.71
2022-11-26T19:52:21.625Z,3.75
2022-11-26T19:55:28.165Z,3.71
2022-11-26T19:58:35.722Z,3.64
2022-11-26T20:01:42.868Z,3.61
2022-11-26T20:04:49.856Z,3.60
2022-11-26T20:07:56.843Z,3.57
2022-11-26T20:11:03.836Z,3.54
2022-11-26T20:14:10.967Z,3.53
2022-11-26T20:17:18.204Z,3.53
2022-11-26T20:20:25.088Z,3.58
2022-11-26T20:23:32.075Z,3.61
2022-11-26T20:26:38.908Z,3.61
2022-11-26T20:29:46.283Z,3.62
2022-11-26T20:32:52.820Z,3.60
2022-11-26T20:35:59.760Z,3.52
2022-11-26T20:39:07.340Z,3.52
2022-11-26T20:42:14.541Z,3.54
2022-11-26T20:45:21.552Z,3.50
2022-11-26T20:48:28.659Z,3.58
2022-11-26T20:51:35.233Z,3.64
2022-11-26T20:54:42.566Z,3.65
2022-11-26T20:57:49.472Z,3.68
2022-11-26T21:00:56.092Z,3.71
2022-11-26T21:04:03.436Z,3.71
2022-11-26T21:07:10.343Z,3.76
2022-11-26T21:10:17.172Z,3.76
2022-11-26T21:13:24.364Z,3.76
2022-11-26T21:16:30.928Z,3.75
2022-11-26T21:19:38.514Z,3.70
2022-11-26T21:22:45.686Z,3.64
2022-11-26T21:25:52.217Z,3.57
2022-11-26T21:28:59.131Z,3.50
2022-11-26T21:32:06.267Z,3.44
2022-11-26T21:35:12.767Z,3.43
2022-11-26T21:38:25.258Z,3.36
2022-11-26T21:41:23.057Z,3.30
2022-11-26T21:44:29.491Z,3.21
2022-11-26T21:47:36.639Z,3.13
2022-11-26T21:50:43.572Z,3.06
2022-11-26T21:53:50.980Z,3.03
2022-11-26T21:56:58.310Z,3.05
2022-11-26T22:00:04.841Z,3.00
2022-11-26T22:03:12.043Z,2.95
2022-11-26T22:06:18.712Z,2.87
2022-11-26T22:09:25.424Z,2.84
2022-11-26T22:12:32.791Z,2.79
2022-11-26T22:15:39.609Z,2.77
2022-11-26T22:18:46.395Z,2.71
2022-11-26T22:21:53.383Z,2.70
2022-11-26T22:25:00.523Z,2.63
2022-11-26T22:28:07.426Z,2.56
2022-11-26T22:31:14.361Z,2.56
2022-11-26T22:34:21.544Z,2.55
2022-11-26T22:37:28.445Z,2.56
2022-11-26T22:40:35.285Z,2.58
2022-11-26T22:43:42.447Z,2.56
2022-11-26T22:46:48.935Z,2.63
2022-11-26T22:49:56.135Z,2.69
2022-11-26T22:53:02.760Z,2.71
2022-11-26T22:56:09.288Z,2.69
2022-11-26T22:59:16.286Z,2.66
2022-11-26T23:02:22.729Z,2.67
2022-11-26T23:05:29.359Z,2.66
2022-11-26T23:08:36.539Z,2.64
2022-11-26T23:11:43.020Z,2.59
2022-11-26T23:14:49.819Z,2.58
2022-11-26T23:17:56.979Z,2.55
2022-11-26T23:21:03.380Z,2.51
2022-11-26T23:24:10.549Z,2.44
2022-11-26T23:27:17.181Z,2.38
2022-11-26T23:30:23.990Z,2.35
2022-11-26T23:33:31.140Z,2.34
2022-11-26T23:36:37.912Z,2.28
2022-11-26T23:39:44.418Z,2.23
2022-11-26T23:42:51.274Z,2.13
2022-11-26T23:45:58.572Z,2.12
2022-11-26T23:49:05.337Z,2.15
2022-11-26T23:52:12.223Z,2.06
2022-11-26T23:55:19.341Z,2.01
2022-11-26T23:58:26.073Z,1.94
